createdAt,value
2023-02-26T00:02:54.788Z,13.9
2023-02-26T00:08:49.565Z,13.9
2023-02-26T00:14:28.327Z,13.9
2023-02-26T00:20:21.935Z,13.8
2023-02-26T00:26:14.616Z,13.8
2023-02-26T00:32:09.081Z,13.8
2023-02-26T00:38:01.553Z,13.8
2023-02-26T00:43:55.053Z,13.9
2023-02-26T00:49:48.374Z,13.8
2023-02-26T00:55:39.978Z,13.9
2023-02-26T01:01:32.672Z,13.8
2023-02-26T01:07:25.647Z,13.8
2023-02-26T01:13:17.783Z,14.1
2023-02-26T01:19:12.556Z,13.9
2023-02-26T01:25:05.083Z,13.9
2023-02-26T01:30:57.668Z,13.9
2023-02-26T01:36:52.024Z,13.7
2023-02-26T01:42:45.878Z,13.8
2023-02-26T01:48:38.961Z,14.1
2023-02-26T01:54:32.448Z,13.8
2023-02-26T02:00:25.508Z,13.8
2023-02-26T02:06:17.935Z,13.8
2023-02-26T02:12:11.030Z,13.7
2023-02-26T02:17:48.343Z,13.6
2023-02-26T02:23:25.623Z,13.8
2023-02-26T02:29:19.103Z,13.5
2023-02-26T02:35:14.012Z,13.9
2023-02-26T02:41:06.751Z,13.8
2023-02-26T02:47:02.429Z,13.6
2023-02-26T02:52:55.100Z,13.6
2023-02-26T02:58:47.253Z,13.8
2023-02-26T03:04:41.698Z,13.5
2023-02-26T03:10:35.303Z,13.8
2023-02-26T03:16:28.425Z,13.7
2023-02-26T03:22:22.288Z,13.7
2023-02-26T03:28:14.921Z,13.7
2023-02-26T03:34:08.458Z,13.6
2023-02-26T03:40:00.713Z,13.7
2023-02-26T03:45:37.900Z,13.6
2023-02-26T03:51:31.210Z,13.6
2023-02-26T03:57:08.763Z,13.4
2023-02-26T04:03:02.090Z,13.5
2023-02-26T04:08:40.060Z,13.4
2023-02-26T04:14:20.200Z,13.3
2023-02-26T04:19:57.522Z,13.1
2023-02-26T04:25:50.506Z,13.1
2023-02-26T04:31:43.597Z,13.2
2023-02-26T04:37:36.511Z,13.4
2023-02-26T04:43:13.392Z,13.3
2023-02-26T04:49:07.865Z,13.7
2023-02-26T04:54:45.293Z,13.5
2023-02-26T05:00:23.696Z,13.6
2023-02-26T05:05:45.316Z,13.6
2023-02-26T05:11:38.574Z,13.5
2023-02-26T05:17:32.307Z,13.4
2023-02-26T05:23:28.034Z,13.4
2023-02-26T05:29:20.928Z,13.8
2023-02-26T05:35:14.404Z,13.8
2023-02-26T05:41:07.682Z,13.9
2023-02-26T05:47:00.762Z,14
2023-02-26T05:52:53.602Z,14.1
2023-02-26T05:58:30.621Z,14.1
2023-02-26T06:04:23.720Z,14.3
2023-02-26T06:10:15.748Z,14.4
2023-02-26T06:16:07.735Z,14.7
2023-02-26T06:22:00.897Z,14.9
2023-02-26T06:27:53.649Z,15.2
2023-02-26T06:33:47.472Z,15.1
2023-02-26T06:39:25.840Z,15.3
2023-02-26T06:45:02.725Z,15.2
2023-02-26T06:50:55.894Z,15.4
2023-02-26T06:56:48.325Z,15.4
2023-02-26T07:02:41.445Z,15.6
2023-02-26T07:08:53.221Z,15.8
2023-02-26T07:14:48.874Z,15.7
2023-02-26T07:20:41.945Z,15.8
2023-02-26T07:26:35.754Z,15.8
2023-02-26T07:32:32.105Z,15.8
2023-02-26T07:38:24.297Z,15.9
2023-02-26T07:44:17.046Z,15.8
2023-02-26T07:49:54.571Z,15.9
2023-02-26T07:55:46.724Z,16
2023-02-26T08:01:39.650Z,16.1
2023-02-26T08:07:32.432Z,16.3
2023-02-26T08:13:24.678Z,16.4
2023-02-26T08:19:18.608Z,16.6
2023-02-26T08:24:57.348Z,16.5
2023-02-26T08:30:33.706Z,16.8
2023-02-26T08:36:27.928Z,16.7
2023-02-26T08:47:55.978Z,17.2
2023-02-26T08:53:49.655Z,17.1
2023-02-26T08:59:41.718Z,17.3
2023-02-26T09:05:37.180Z,17.3
2023-02-26T09:11:31.752Z,17.3
2023-02-26T09:17:08.749Z,17.6
2023-02-26T09:23:01.849Z,17.6
2023-02-26T09:28:55.135Z,18.2
2023-02-26T09:34:33.005Z,18.6
2023-02-26T09:40:27.632Z,18.6
2023-02-26T09:46:20.313Z,18.6
2023-02-26T09:51:57.200Z,18.4
2023-02-26T09:57:48.567Z,18.5
2023-02-26T10:03:41.343Z,18.3
2023-02-26T10:09:34.928Z,18.5
2023-02-26T10:15:25.728Z,18.6
2023-02-26T10:20:48.618Z,18.6
2023-02-26T10:26:41.879Z,18.3
2023-02-26T10:32:36.250Z,18.6
2023-02-26T10:38:00.739Z,18.3
2023-02-26T10:43:53.597Z,18.6
2023-02-26T10:49:30.479Z,18.6
2023-02-26T10:54:52.785Z,18
2023-02-26T11:00:30.502Z,17.6
2023-02-26T11:06:13.634Z,17.9
2023-02-26T11:11:50.736Z,17.6
2023-02-26T11:17:45.794Z,17.7
2023-02-26T11:23:37.688Z,17.5
2023-02-26T11:29:33.310Z,17.4
2023-02-26T11:35:29.398Z,17.4
2023-02-26T11:41:26.286Z,17.2
2023-02-26T11:47:02.655Z,17.1
2023-02-26T11:58:01.430Z,16.8
2023-02-26T12:03:41.565Z,16.8
2023-02-26T12:09:34.696Z,16.8
2023-02-26T12:15:27.956Z,16.9
2023-02-26T12:21:07.559Z,17.6
2023-02-26T12:32:39.287Z,16.7
2023-02-26T12:38:48.827Z,17.3
2023-02-26T12:50:19.319Z,17.6
2023-02-26T12:56:12.704Z,17.9
2023-02-26T13:02:17.081Z,17.8
2023-02-26T13:08:08.879Z,17.2
2023-02-26T13:14:02.189Z,17.3
2023-02-26T13:19:54.956Z,17.1
2023-02-26T13:25:46.980Z,16.9
2023-02-26T13:31:43.466Z,16.6
2023-02-26T13:37:37.889Z,16.7
2023-02-26T13:43:30.300Z,17.2
2023-02-26T13:48:36.619Z,17.2
2023-02-26T13:53:58.832Z,17.1
2023-02-26T13:59:36.819Z,17.1
2023-02-26T14:05:14.054Z,17.4
2023-02-26T14:10:51.256Z,16.9
2023-02-26T14:16:30.712Z,16.6
2023-02-26T14:22:23.245Z,16.6
2023-02-26T14:28:16.295Z,16.4
2023-02-26T14:34:10.389Z,16.4
2023-02-26T14:40:06.465Z,16.4
2023-02-26T14:46:00.304Z,15.9
2023-02-26T14:51:52.959Z,15.7
2023-02-26T14:57:45.736Z,15.6
2023-02-26T15:03:38.181Z,15.3
2023-02-26T15:09:30.660Z,15.2
2023-02-26T15:15:25.680Z,14.9
2023-02-26T15:21:19.682Z,14.9
2023-02-26T15:27:12.877Z,14.7
2023-02-26T15:33:07.223Z,14.6
2023-02-26T15:39:01.219Z,14.6
2023-02-26T15:45:01.713Z,14.4
2023-02-26T15:50:55.271Z,14.4
2023-02-26T15:56:48.422Z,14.3
2023-02-26T16:02:26.152Z,14.4
2023-02-26T16:08:18.833Z,14.3
2023-02-26T16:14:11.933Z,14.1
2023-02-26T16:20:05.370Z,14.2
2023-02-26T16:25:58.969Z,14.4
2023-02-26T16:31:52.594Z,14.3
2023-02-26T16:37:32.080Z,14.4
2023-02-26T16:43:09.363Z,14.6
2023-02-26T16:48:48.102Z,14.2
2023-02-26T16:54:11.363Z,14.2
2023-02-26T16:59:36.037Z,14.1
2023-02-26T17:05:14.202Z,14.1
2023-02-26T17:11:08.615Z,13.9
2023-02-26T17:17:05.497Z,14.1
2023-02-26T17:23:00.143Z,14.3
2023-02-26T17:28:52.499Z,13.9
2023-02-26T17:34:46.688Z,14.2
2023-02-26T17:40:40.090Z,14.5
2023-02-26T17:46:33.333Z,14.4
2023-02-26T17:52:26.671Z,13.9
2023-02-26T17:58:20.470Z,13.9
2023-02-26T18:04:14.872Z,13.8
2023-02-26T18:10:08.878Z,13.7
2023-02-26T18:16:01.831Z,13.8
2023-02-26T18:21:55.724Z,13.9
2023-02-26T18:27:48.396Z,13.4
2023-02-26T18:33:43.056Z,13.3
2023-02-26T18:39:35.453Z,13.3
2023-02-26T18:45:28.771Z,13.3
2023-02-26T18:51:22.074Z,13.1
2023-02-26T18:57:14.520Z,12.9
2023-02-26T19:03:12.649Z,13.1
2023-02-26T19:09:06.113Z,13
2023-02-26T19:14:59.369Z,13
2023-02-26T19:20:52.802Z,12.8
2023-02-26T19:26:49.637Z,12.4
2023-02-26T19:32:46.251Z,12.1
2023-02-26T19:38:41.313Z,11.9
2023-02-26T19:44:35.059Z,12.3
2023-02-26T19:50:28.313Z,11.7
2023-02-26T19:56:20.507Z,12.1
2023-02-26T20:02:14.676Z,11.9
2023-02-26T20:08:08.178Z,11.5
2023-02-26T20:14:03.086Z,11.1
2023-02-26T20:19:57.361Z,11.3
2023-02-26T20:25:50.268Z,11.9
2023-02-26T20:31:27.609Z,11.1
2023-02-26T20:37:27.342Z,10.9
2023-02-26T20:43:20.319Z,10.8
2023-02-26T20:49:13.900Z,11.9
2023-02-26T20:55:07.884Z,12
2023-02-26T21:00:45.777Z,11.7
2023-02-26T21:06:24.020Z,11.6
2023-02-26T21:12:17.083Z,11.9
2023-02-26T21:18:10.311Z,11.8
2023-02-26T21:24:03.641Z,12
2023-02-26T21:29:58.364Z,11.7
2023-02-26T21:36:17.296Z,11.8
2023-02-26T21:42:11.026Z,11.4
2023-02-26T21:48:05.038Z,11.7
2023-02-26T21:53:58.715Z,11.5
2023-02-26T21:59:51.489Z,11.6
2023-02-26T22:05:44.730Z,11.4
2023-02-26T22:11:37.462Z,11.6
2023-02-26T22:17:29.963Z,11.8
2023-02-26T22:23:22.683Z,11.9
2023-02-26T22:29:14.406Z,11.7
2023-02-26T22:35:07.919Z,12.4
2023-02-26T22:41:00.276Z,12.4
2023-02-26T22:46:53.570Z,11.5
2023-02-26T22:52:45.494Z,11.1
2023-02-26T22:58:38.212Z,10.8
2023-02-26T23:04:31.962Z,12
2023-02-26T23:10:24.343Z,11.9
2023-02-26T23:16:17.662Z,12.1
2023-02-26T23:22:09.475Z,11.7
2023-02-26T23:28:01.790Z,10.9
2023-02-26T23:33:54.937Z,10.5
2023-02-26T23:39:46.776Z,10.5
2023-02-26T23:45:39.863Z,10.6
2023-02-26T23:51:31.883Z,10.1
2023-02-26T23:57:23.906Z,10.3
